May 22, 2022

Time Code Weather Temp. Visibility Clouds Wind METAR/SPECI
10:00 am
V
72 °F 6¼ mi+ - 120°   120° 7 kt METAR LFBG 220800Z AUTO 12007KT 080V210 CAVOK 22/15 Q1011 NOSIG
9:30 am
V
70 °F 6¼ mi+ - 100°   100° 13 kt METAR LFBG 220730Z AUTO 10013KT CAVOK 21/14 Q1010 NOSIG
9:00 am
V
70 °F 6¼ mi+ - 070°   070° 11 kt METAR LFBG 220700Z AUTO 07011KT CAVOK 21/14 Q1010 NOSIG
8:30 am
V
68 °F 6¼ mi+ - 080°   080° 3 kt METAR LFBG 220630Z AUTO 08003KT 050V120 CAVOK 20/14 Q1012 NOSIG
8:00 am
V
68 °F 6¼ mi+ - Var   Var 3 kt METAR LFBG 220600Z AUTO VRB03KT CAVOK 20/13 Q1012 NOSIG
7:30 am
V
68 °F 6¼ mi+ - 040°   040° 9 kt METAR LFBG 220530Z AUTO 04009KT CAVOK 20/13 Q1012 NOSIG
7:00 am
V
68 °F 6¼ mi+ - 040°   040° 5 kt METAR LFBG 220500Z AUTO 04005KT CAVOK 20/13 Q1013 TEMPO 05020G30KT
6:30 am
V
70 °F 6¼ mi+ - Var   Var 2 kt METAR LFBG 220430Z AUTO VRB02KT CAVOK 21/13 Q1013 TEMPO 05020G30KT
6:00 am
V
70 °F 6¼ mi+ - 020°   020° 4 kt METAR LFBG 220400Z AUTO 02004KT CAVOK 21/13 Q1013 TEMPO 05020G30KT
5:30 am
V
70 °F 6¼ mi+ - 010°   010° 3 kt METAR LFBG 220330Z AUTO 01003KT CAVOK 21/13 Q1013 TEMPO 05020G30KT
5:00 am
V
70 °F 6¼ mi+ - 010°   010° 3 kt METAR LFBG 220300Z AUTO 01003KT CAVOK 21/13 Q1013 TEMPO 05020G30KT
4:30 am
V
70 °F 6¼ mi+ - 040°   040° 2 kt METAR LFBG 220230Z AUTO 04002KT CAVOK 21/13 Q1013 TEMPO 05020G30KT
4:00 am
V
72 °F 6¼ mi+ - 020°   020° 5 kt METAR LFBG 220200Z AUTO 02005KT CAVOK 22/13 Q1013 NOSIG
3:30 am
V
72 °F 6¼ mi+ - 030°   030° 5 kt METAR LFBG 220130Z AUTO 03005KT CAVOK 22/13 Q1013 NOSIG
3:00 am
V
72 °F 6¼ mi+ - 360°   360° 5 kt METAR LFBG 220100Z AUTO 36005KT CAVOK 22/13 Q1013 NOSIG
2:30 am
V
73 °F 6¼ mi+ - 020°   020° 6 kt METAR LFBG 220030Z AUTO 02006KT CAVOK 23/14 Q1013 NOSIG
2:00 am
V
75 °F 6¼ mi+ - 020°   020° 5 kt METAR LFBG 220000Z AUTO 02005KT CAVOK 24/14 Q1014 NOSIG
1:30 am
V
75 °F 6¼ mi+ - 010°   010° 3 kt METAR LFBG 212330Z AUTO 01003KT CAVOK 24/15 Q1014 NOSIG
1:00 am
V
75 °F 6¼ mi+ - 040°   040° 3 kt METAR LFBG 212300Z AUTO 04003KT CAVOK 24/15 Q1014 NOSIG
12:30 am
V
77 °F 6¼ mi+ - 060°   060° 6 kt METAR LFBG 212230Z AUTO 06006KT CAVOK 25/15 Q1014 NOSIG
12:00 am
V
77 °F 6¼ mi+ - 070°   070° 6 kt METAR LFBG 212200Z AUTO 07006KT CAVOK 25/15 Q1014 NOSIG

May 21, 2022

Time Code Weather Temp. Visibility Clouds Wind METAR/SPECI
11:30 pm
V
77 °F 6¼ mi+ - 050°   050° 6 kt METAR LFBG 212130Z AUTO 05006KT CAVOK 25/16 Q1015 NOSIG
11:00 pm
V
79 °F 6¼ mi+ - 040°   040° 9 kt METAR LFBG 212100Z AUTO 04009KT CAVOK 26/16 Q1015 NOSIG
10:30 pm
V
81 °F 6¼ mi+ - 020°   020° 8 kt METAR LFBG 212030Z AUTO 02008KT CAVOK 27/17 Q1015 NOSIG
10:00 pm
V
81 °F 6¼ mi+ - 010°   010° 6 kt METAR LFBG 212000Z AUTO 01006KT CAVOK 27/17 Q1015 NOSIG
9:30 pm
V
82 °F 6¼ mi+ - 010°   010° 5 kt METAR LFBG 211930Z AUTO 01005KT CAVOK 28/17 Q1015 NOSIG
9:00 pm
V
84 °F 6¼ mi+ - 030°   030° 4 kt METAR LFBG 211900Z AUTO 03004KT CAVOK 29/17 Q1015 NOSIG
8:30 pm
V
84 °F 6¼ mi+ - 030°   030° 4 kt METAR LFBG 211830Z AUTO 03004KT CAVOK 29/17 Q1015 NOSIG
8:00 pm
V
86 °F 6¼ mi+ - 030°   030° 8 kt METAR LFBG 211800Z AUTO 03008KT CAVOK 30/17 Q1014 NOSIG
7:30 pm
V
86 °F 6¼ mi+ - 080°   080° 4 kt METAR LFBG 211730Z AUTO 08004KT CAVOK 30/16 Q1015 NOSIG
7:00 pm
V
88 °F 6¼ mi+ - Var   Var 3 kt METAR LFBG 211700Z AUTO VRB03KT CAVOK 31/16 Q1015 NOSIG
6:30 pm
V
90 °F 6¼ mi+ - Var   Var 2 kt METAR LFBG 211630Z AUTO VRB02KT CAVOK 32/16 Q1016 NOSIG
6:00 pm
V
88 °F 6¼ mi+ - 120°   120° 7 kt METAR LFBG 211600Z AUTO 12007KT CAVOK 31/16 Q1015 NOSIG
5:30 pm
V
88 °F 6¼ mi+ - 090°   090° 6 kt METAR LFBG 211530Z AUTO 09006KT 060V120 CAVOK 31/17 Q1016 NOSIG
5:00 pm
V
88 °F 6¼ mi+ - Var   Var 4 kt METAR LFBG 211500Z AUTO VRB04KT CAVOK 31/17 Q1016 NOSIG
4:30 pm
V
88 °F 6¼ mi+ - 040°   040° 4 kt METAR LFBG 211430Z AUTO 04004KT 350V160 CAVOK 31/16 Q1017 NOSIG
4:00 pm
V
88 °F 6¼ mi+ - 020°   020° 4 kt METAR LFBG 211400Z AUTO 02004KT 300V090 CAVOK 31/16 Q1017 NOSIG
3:30 pm
V
86 °F 6¼ mi+ - Var   Var 5 kt METAR LFBG 211330Z AUTO VRB05KT 9999 FEW003 30/17 Q1018 NOSIG
3:00 pm
V
86 °F 6¼ mi+ - 050°   050° 5 kt METAR LFBG 211300Z AUTO 05005KT 320V130 CAVOK 30/17 Q1018 NOSIG
2:30 pm
V
84 °F 6¼ mi+ - 060°   060° 5 kt METAR LFBG 211230Z AUTO 06005KT 020V140 CAVOK 29/16 Q1018 NOSIG
2:00 pm
V
82 °F 6¼ mi+ - 080°   080° 4 kt METAR LFBG 211200Z AUTO 08004KT 360V140 CAVOK 28/16 Q1018 NOSIG
1:30 pm
V
82 °F 6¼ mi+ - 070°   070° 4 kt METAR LFBG 211130Z AUTO 07004KT 330V120 CAVOK 28/16 Q1019 NOSIG
1:00 pm
V
82 °F 6¼ mi+ - 070°   070° 5 kt METAR LFBG 211100Z AUTO 07005KT 040V100 CAVOK 28/16 Q1019 NOSIG
12:30 pm
V
81 °F 6¼ mi+ - 060°   060° 6 kt METAR LFBG 211030Z AUTO 06006KT 360V100 CAVOK 27/16 Q1019 NOSIG
12:00 pm
V
79 °F 6¼ mi+ - 060°   060° 5 kt METAR LFBG 211000Z AUTO 06005KT 010V140 CAVOK 26/16 Q1020 NOSIG
11:30 am
V
77 °F 6¼ mi+ - 030°   030° 5 kt METAR LFBG 210930Z AUTO 03005KT 340V080 CAVOK 25/16 Q1020 NOSIG
11:00 am
V
75 °F 6¼ mi+ - 040°   040° 4 kt METAR LFBG 210900Z AUTO 04004KT 350V100 CAVOK 24/16 Q1020 NOSIG
10:30 am
V
73 °F 6¼ mi+ - 360°   360° 3 kt METAR LFBG 210830Z AUTO 36003KT 310V060 CAVOK 23/16 Q1021 NOSIG
10:00 am
V
70 °F 6¼ mi+ - 050°   050° 4 kt METAR LFBG 210800Z AUTO 05004KT 020V120 CAVOK 21/15 Q1021 NOSIG
9:30 am
V
68 °F 6¼ mi+ - 060°   060° 4 kt METAR LFBG 210730Z AUTO 06004KT 030V110 CAVOK 20/14 Q1021 NOSIG
9:00 am
V
64 °F 6¼ mi+ - 060°   060° 3 kt METAR LFBG 210700Z AUTO 06003KT 020V090 CAVOK 18/14 Q1021 NOSIG
8:30 am
V
63 °F 6¼ mi+ - Var   Var 3 kt METAR LFBG 210630Z AUTO VRB03KT 9999 FEW047 17/13 Q1021 NOSIG
8:00 am
V
61 °F 6¼ mi+ - Var   Var 2 kt METAR LFBG 210600Z AUTO VRB02KT CAVOK 16/12 Q1021 NOSIG
7:30 am
V
59 °F 6¼ mi+ - 080°   080° 1 kt METAR LFBG 210530Z AUTO 08001KT CAVOK 15/11 Q1021 NOSIG
7:00 am
V
57 °F 6¼ mi+ - 050°   050° 2 kt METAR LFBG 210500Z AUTO 05002KT CAVOK 14/11 Q1021 NOSIG
6:30 am
V
57 °F 6¼ mi+ - 070°   070° 2 kt METAR LFBG 210430Z AUTO 07002KT CAVOK 14/10 Q1021
6:00 am
V
57 °F 6¼ mi+ - Var   Var 1 kt METAR LFBG 210400Z AUTO VRB01KT CAVOK 14/10 Q1022
5:30 am
V
57 °F 6¼ mi+ - Var   Var 2 kt METAR LFBG 210330Z AUTO VRB02KT CAVOK 14/10 Q1022
5:00 am
V
59 °F 6¼ mi+ - 030°   030° 5 kt METAR LFBG 210300Z AUTO 03005KT 340V130 CAVOK 15/10 Q1022
4:30 am
V
59 °F 6¼ mi+ - Var   Var 2 kt METAR LFBG 210230Z AUTO VRB02KT CAVOK 15/11 Q1022
4:00 am
V
59 °F 6¼ mi+ - 350°   350° 4 kt METAR LFBG 210200Z AUTO 35004KT CAVOK 15/11 Q1022
3:30 am
V
59 °F 6¼ mi+ - 350°   350° 3 kt METAR LFBG 210130Z AUTO 35003KT CAVOK 15/12 Q1023
3:00 am
V
59 °F 6¼ mi+ - 340°   340° 5 kt METAR LFBG 210100Z AUTO 34005KT CAVOK 15/12 Q1023
2:30 am
V
59 °F 6¼ mi+ - 350°   350° 4 kt METAR LFBG 210030Z AUTO 35004KT CAVOK 15/12 Q1023
2:00 am
V
61 °F 6¼ mi+ - 310°   310° 3 kt METAR LFBG 210000Z AUTO 31003KT CAVOK 16/12 Q1024
1:30 am
V
61 °F 6¼ mi+ - 310°   310° 4 kt METAR LFBG 202330Z AUTO 31004KT CAVOK 16/12 Q1024
1:00 am
V
61 °F 6¼ mi+ - Var   Var 3 kt METAR LFBG 202300Z AUTO VRB03KT CAVOK 16/12 Q1024
12:30 am
V
61 °F 6¼ mi+ - 260°   260° 4 kt METAR LFBG 202230Z AUTO 26004KT CAVOK 16/12 Q1024
12:00 am
V
63 °F 6¼ mi+ - 250°   250° 4 kt METAR LFBG 202200Z AUTO 25004KT CAVOK 17/12 Q1024

May 20, 2022

Time Code Weather Temp. Visibility Clouds Wind METAR/SPECI
11:30 pm
V
64 °F 6¼ mi+ - 250°   250° 4 kt METAR LFBG 202130Z AUTO 25004KT CAVOK 18/12 Q1024
11:00 pm
V
64 °F 6¼ mi+ - 270°   270° 5 kt METAR LFBG 202100Z AUTO 27005KT CAVOK 18/12 Q1024 NOSIG
10:30 pm
V
66 °F 6¼ mi+ - 280°   280° 6 kt METAR LFBG 202030Z AUTO 28006KT CAVOK 19/12 Q1024 NOSIG
10:00 pm
V
68 °F 6¼ mi+ - 280°   280° 5 kt METAR LFBG 202000Z AUTO 28005KT CAVOK 20/12 Q1023 NOSIG
9:30 pm
V
70 °F 6¼ mi+ - 280°   280° 6 kt METAR LFBG 201930Z AUTO 28006KT CAVOK 21/13 Q1023 NOSIG
9:00 pm
V
73 °F 6¼ mi+ - 290°   290° 6 kt METAR LFBG 201900Z AUTO 29006KT CAVOK 23/13 Q1023 NOSIG
8:30 pm
V
75 °F 6¼ mi+ - 290°   290° 6 kt METAR LFBG 201830Z AUTO 29006KT CAVOK 24/12 Q1023 NOSIG
8:00 pm
V
77 °F 6¼ mi+ - 270°   270° 7 kt METAR LFBG 201800Z AUTO 27007KT CAVOK 25/12 Q1023 NOSIG
7:30 pm
V
77 °F 6¼ mi+ - 290°   290° 7 kt METAR LFBG 201730Z AUTO 29007KT 260V320 CAVOK 25/12 Q1022 NOSIG
7:00 pm
V
77 °F 6¼ mi+ - 290°   290° 8 kt METAR LFBG 201700Z AUTO 29008KT 250V320 CAVOK 25/12 Q1023 NOSIG
6:30 pm
V
77 °F 6¼ mi+ - 300°   300° 12 kt METAR LFBG 201630Z AUTO 30012KT CAVOK 25/11 Q1022 NOSIG
6:00 pm
V
79 °F 6¼ mi+ - 290°   290° 12 kt METAR LFBG 201600Z AUTO 29012KT 260V320 CAVOK 26/11 Q1022 NOSIG
5:30 pm
V
79 °F 6¼ mi+ - 300°   300° 11 kt METAR LFBG 201530Z AUTO 30011KT CAVOK 26/12 Q1022 NOSIG
5:00 pm
V
79 °F 6¼ mi+ - 270°   270° 10 kt METAR LFBG 201500Z AUTO 27010KT 230V300 9999 FEW033 26/15 Q1022 NOSIG
4:30 pm
V
77 °F 6¼ mi+ 3,200 ft 240°   240° 9 kt METAR LFBG 201430Z AUTO 24009KT 200V270 9999 BKN032 OVC044 25/16 Q1022 NOSIG
4:00 pm
V
75 °F 6¼ mi+ 3,900 ft 280°   280° 7 kt METAR LFBG 201400Z AUTO 28007KT 240V300 9999 SCT031 OVC039 24/16 Q1022 NOSIG
3:30 pm
V
75 °F 6¼ mi+ 3,100 ft 290°   290° 10 kt METAR LFBG 201330Z AUTO 29010KT 9999 OVC031 24/17 Q1022 NOSIG
3:00 pm
V
77 °F 6¼ mi+ 3,400 ft 270°   270° 10 kt METAR LFBG 201300Z AUTO 27010KT 9999 FEW027 BKN034 OVC200 25/17 Q1022 NOSIG
2:30 pm
M
75 °F 6¼ mi+ 2,400 ft 260°   260° 9 kt METAR LFBG 201230Z AUTO 26009KT 230V290 9999 BKN024 BKN030 OVC190 24/17 Q1022 NOSIG
2:00 pm
M
75 °F 6¼ mi+ 2,600 ft 240°   240° 10 kt METAR LFBG 201200Z AUTO 24010KT 210V270 9999 SCT021 BKN026 OVC190 24/17 Q1021 TEMPO 28015G30KT
1:30 pm
M
73 °F 6¼ mi+ 1,900 ft 250°   250° 10 kt METAR LFBG 201130Z AUTO 25010KT 9999 OVC019 23/17 Q1021 TEMPO 28015G30KT
1:00 pm
M
73 °F 6¼ mi+ 1,600 ft 230°   230° 11 kt METAR LFBG 201100Z AUTO 23011KT 9999 OVC016 23/18 Q1021 TEMPO 28015G30KT
12:30 pm
M
73 °F 6¼ mi+ 1,400 ft 220°   220° 10 kt METAR LFBG 201030Z AUTO 22010KT 9999 BKN014 OVC019 23/18 Q1020 TEMPO 28015G30KT BECMG BKN020
12:00 pm
M
72 °F 6¼ mi+ 1,500 ft 230°   230° 10 kt METAR LFBG 201000Z AUTO 23010KT 9999 OVC015 22/18 Q1020 TEMPO 28015G30KT
11:30 am
M
73 °F 6¼ mi+ 1,700 ft 220°   220° 12 kt METAR LFBG 200930Z AUTO 22012KT 9999 OVC017 23/18 Q1020 TEMPO 28015G30KT
11:00 am
M
73 °F 6¼ mi+ 2,600 ft 210°   210° 14 kt METAR LFBG 200900Z AUTO 21014KT 9999 SCT019 BKN026 BKN190 23/18 Q1020 TEMPO 28015G30KT BKN014
10:30 am
V
73 °F 6¼ mi+ - 190°   190° 13 kt METAR LFBG 200830Z AUTO 19013KT CAVOK 23/17 Q1019 TEMPO 28015G30KT BKN014
10:00 am
V
73 °F 6¼ mi+ - 180°   180° 11 kt METAR LFBG 200800Z AUTO 18011KT CAVOK 23/17 Q1019 TEMPO 23015G25KT
9:30 am
V
73 °F 6¼ mi+ - 170°   170° 9 kt METAR LFBG 200730Z AUTO 17009KT 140V200 CAVOK 23/16 Q1018 TEMPO 23015G25KT
9:00 am
V
72 °F 6¼ mi+ - 160°   160° 8 kt METAR LFBG 200700Z AUTO 16008KT 120V190 CAVOK 22/16 Q1018 TEMPO 23015G25KT
Older data

Download our app

Easy access to all aviation weather on your mobile phone and tablet.
With many features not available on the website, like offline support and a personal airport list.

We and third parties follow your internet behavior on our website with cookies. If you continue, we assume you agree with our cookie policy. Learn more